Franklin, NC

6:47 PM EDT on August 30, 2015 (GMT -0400)
Iotla Valley | | Change Station
CLOSE
Current Station
Personal Weather Station
Location: Franklin, NC
Elevation: 2200 ft
Nearby Weather Stations

Elev 2200 ft 35.20 °N, 83.42 °W | Updated 3 seconds ago

Overcast
Overcast
64.4 °F
Feels Like 64.4 °F
N
0.0
Wind Variable Wind from NE
Gusts 0.0 mph

Today
High -- | Low -- °F
--% Chance of Precip.
Yesterday
High -- | Low -- °F
Precip. -- in
7:04 AM 8:03 PM
Full, 98% visible
Pressure 30.13 in
Visibility 10.0 miles
Clouds Overcast 6500 ft
Dew Point 38 °F
Humidity 37%
Rainfall 0.00 in
Snow Depth Not available.
UV 0 out of 12
Pollen 5.20 out of 12
Air Quality Not available.
Flu Activity Not available.
METAR KRHP 302235Z AUTO 32003KT 10SM OVC065 20/20 A3013 RMK AO2 T01990195
Pressure 30.13 in
Visibility 10.0 miles
Clouds Overcast 6500 ft
Dew Point 38 °F
Humidity 37%
Rainfall 0.00 in
Snow Depth Not available.
UV 0 out of 12
Pollen 5.20 out of 12
Air Quality Not available.
Flu Activity Not available.
METAR KRHP 302235Z AUTO 32003KT 10SM OVC065 20/20 A3013 RMK AO2 T01990195

10-Day Weather Forecast

×

Almanac

Astronomy

Aug. 30, 2015 Rise Set
Actual Time
Civil Twilight
Nautical Twilight
Astronomical Twilight
Moon
Length of Visible Light
Length of Day
Tomorrow will be .
, % of the Moon is Illuminated

Today's Extremes

State Highs State Lows

Community

WunderPhotos

Upload Photos

1,851,075 photos uploaded!

WunderBlogs® & News

Nearby

Air Quality

  Air Quality AQ Index Pollutant
Not available.

Snow Depth

Station Depth Elevation

Earthquake Activity

City Distance Mag. Time & Date
Minimum magnitude displayed is 2.5.

Coastal Water Temperatures

Place Temperature

Stations

Nearby Weather Stations

Station Location Temp. Windchill Dew Point Humidity Wind Precip. Elev Updated Type